Terminal Aerodrome Forecast
Issued by NWS

Home | Current Version | Previous Version | Text Only | Print | Product List | Glossary On
Versions: 1 2 3 4 5 6 7 8 9 10 11 12 13 14 15 16
000
FTUS44 KCRP 201122
TAFALI
TAF
KALI 201122Z 2012/2112 VRB02KT 1SM BR VV003
      TEMPO 2012/2015 1/2SM FG VV002
     FM201600 VRB04KT 2SM BR OVC004
     FM201800 15007KT 5SM BR OVC010
     FM202100 17012KT P6SM BKN015 OVC030
     FM210300 14007KT 6SM BR BKN005 OVC015
     FM210700 16008KT 2SM BR OVC004=

USA.gov is the U.S. government's official web portal to all federal, state and local government web resources and services.